Terminal Aerodrome Forecast
Issued by NWS

Home | Current Version | Previous Version | Text Only | Print | Product List | Glossary On
Versions: 1 2 3 4 5 6 7 8 9 10 11 12 13 14 15 16 17 18 19 20 21 22 23 24 25 26 27 28 29 30 31 32 33 34
000
FTUS44 KBMX 301720
TAFASN
TAF
KASN 301720Z 3018/0118 17009KT P6SM BKN200
     FM010100 29010G20KT 3SM TSRA BKN040CB OVC090
     FM010400 VRB05KT P6SM BKN090
     FM010900 16005KT P6SM BKN015=

USA.gov is the U.S. government's official web portal to all federal, state and local government web resources and services.